Time;durP1;ratioP1;P1;durP2;ratioP2;P2;SDS_P1;SDS_P2;PMS_P1;PMS_P2;Temp;Humidity;BMP_temperature;BMP_pressure;BME280_temperature;BME280_humidity;BME280_pressure;Samples;Min_cycle;Max_cycle;Signal;HPM_P1;HPM_P2
2022/12/14 00:03:48;;;;;;;1.30;0.65;;;;;;;;;;21177417;28;20056;-62
2022/12/14 00:13:54;;;;;;;4.65;1.33;;;;;;;;;;21175318;28;20505;-63
2022/12/14 00:23:57;;;;;;;1.80;0.60;;;;;;;;;;21174955;28;20445;-66
2022/12/14 00:34:00;;;;;;;1.00;0.55;;;;;;;;;;21173799;28;20056;-63
2022/12/14 00:44:02;;;;;;;1.27;0.50;;;;;;;;;;21172849;28;20116;-67
2022/12/14 00:54:04;;;;;;;1.35;0.57;;;;;;;;;;21171917;28;20062;-66
2022/12/14 01:04:25;;;;;;;3.13;0.40;;;;;;;;;;21171881;28;20051;-63
2022/12/14 01:14:26;;;;;;;2.13;0.70;;;;;;;;;;21171522;28;20487;-64
2022/12/14 01:24:29;;;;;;;1.45;0.60;;;;;;;;;;21172270;28;20085;-64
2022/12/14 01:34:31;;;;;;;5.18;0.70;;;;;;;;;;21170200;28;20051;-62
2022/12/14 01:44:33;;;;;;;1.40;0.60;;;;;;;;;;21167764;28;20047;-62
2022/12/14 01:54:36;;;;;;;3.05;0.50;;;;;;;;;;21167230;28;20077;-63
2022/12/14 02:04:42;;;;;;;0.60;0.30;;;;;;;;;;21166794;28;20048;-63
2022/12/14 02:14:44;;;;;;;1.60;0.30;;;;;;;;;;21165616;28;20044;-63
2022/12/14 02:24:55;;;;;;;0.47;0.17;;;;;;;;;;21166152;28;20594;-64
2022/12/14 02:35:01;;;;;;;2.15;0.28;;;;;;;;;;21165252;28;20186;-64
2022/12/14 02:45:18;;;;;;;1.63;0.32;;;;;;;;;;21164276;28;20090;-63
2022/12/14 02:55:27;;;;;;;1.48;0.52;;;;;;;;;;21187131;28;20051;-63
2022/12/14 03:05:30;;;;;;;;;;;;;;;;;;21249695;27;20103;-63
2022/12/14 03:15:34;;;;;;;2.60;1.15;;;;;;;;;;21265573;27;19919;-61
2022/12/14 03:25:46;;;;;;;3.17;1.20;;;;;;;;;;21264414;27;20058;-62
2022/12/14 03:35:57;;;;;;;7.03;1.08;;;;;;;;;;21264152;27;20043;-63
2022/12/14 03:46:12;;;;;;;4.85;0.60;;;;;;;;;;21263047;27;20047;-63
2022/12/14 03:56:30;;;;;;;4.07;0.70;;;;;;;;;;21261638;27;20049;-61
2022/12/14 04:06:35;;;;;;;4.78;0.77;;;;;;;;;;21261921;27;20376;-62
2022/12/14 04:27:05;;;;;;;4.10;0.70;;;;;;;;;;21261662;27;20059;-62
2022/12/14 04:37:11;;;;;;;6.03;0.90;;;;;;;;;;21258610;27;20043;-63
2022/12/14 04:47:14;;;;;;;2.17;0.70;;;;;;;;;;21259682;27;20066;-65
2022/12/14 04:57:19;;;;;;;3.33;0.80;;;;;;;;;;21258154;27;20039;-63
2022/12/14 05:07:27;;;;;;;5.47;0.85;;;;;;;;;;21257152;27;20043;-64
2022/12/14 05:17:29;;;;;;;6.10;0.90;;;;;;;;;;21255488;27;20131;-63
2022/12/14 05:27:33;;;;;;;3.28;0.95;;;;;;;;;;21254547;27;20047;-62
2022/12/14 05:37:36;;;;;;;5.88;0.90;;;;;;;;;;21254393;27;20411;-62
2022/12/14 05:47:41;;;;;;;9.50;1.52;;;;;;;;;;21253335;27;20051;-63
2022/12/14 05:57:43;;;;;;;6.05;1.30;;;;;;;;;;21252521;27;20043;-63
2022/12/14 06:07:46;;;;;;;5.07;1.10;;;;;;;;;;21251385;27;20126;-63
2022/12/14 06:17:49;;;;;;;6.22;1.73;;;;;;;;;;21251283;27;20055;-62
2022/12/14 06:27:53;;;;;;;7.55;1.25;;;;;;;;;;21249709;27;20050;-62
2022/12/14 06:37:55;;;;;;;8.50;1.63;;;;;;;;;;21249039;27;20043;-63
2022/12/14 06:47:57;;;;;;;4.65;1.30;;;;;;;;;;21248747;27;20128;-63
2022/12/14 06:57:59;;;;;;;10.15;1.90;;;;;;;;;;21248827;27;20134;-62
2022/12/14 07:08:01;;;;;;;7.13;1.75;;;;;;;;;;21248218;28;20086;-64
2022/12/14 07:18:03;;;;;;;9.60;1.50;;;;;;;;;;21248202;28;20039;-63
2022/12/14 07:28:05;;;;;;;8.73;1.80;;;;;;;;;;21229440;28;20059;-62
2022/12/14 07:38:07;;;;;;;5.55;1.75;;;;;;;;;;21247378;28;20487;-64
2022/12/14 07:48:08;;;;;;;8.25;1.75;;;;;;;;;;21247532;28;20082;-62
2022/12/14 07:58:10;;;;;;;7.22;1.52;;;;;;;;;;21256960;27;20130;-60
2022/12/14 08:08:12;;;;;;;12.50;4.50;;;;;;;;;;21261176;27;20471;-65
2022/12/14 08:18:14;;;;;;;12.43;2.65;;;;;;;;;;21260512;27;20126;-61
2022/12/14 08:28:15;;;;;;;7.93;2.05;;;;;;;;;;21259267;27;20066;-63
2022/12/14 08:38:17;;;;;;;9.48;1.75;;;;;;;;;;21258519;27;20054;-62
2022/12/14 08:48:18;;;;;;;9.68;1.92;;;;;;;;;;21258850;27;20058;-61
2022/12/14 08:58:20;;;;;;;13.10;2.67;;;;;;;;;;21256544;27;20096;-61
2022/12/14 09:08:22;;;;;;;11.00;3.47;;;;;;;;;;21256942;27;20055;-61
2022/12/14 09:18:24;;;;;;;12.57;3.22;;;;;;;;;;21192339;27;20047;-62
2022/12/14 09:28:26;;;;;;;8.68;2.38;;;;;;;;;;21169729;28;20056;-62
2022/12/14 09:38:30;;;;;;;9.30;3.38;;;;;;;;;;21169206;28;20480;-65
2022/12/14 09:48:32;;;;;;;7.97;2.53;;;;;;;;;;21168902;28;20177;-62
2022/12/14 09:58:35;;;;;;;8.85;3.05;;;;;;;;;;21166949;28;20047;-62
2022/12/14 10:09:01;;;;;;;13.65;4.93;;;;;;;;;;21166357;28;20075;-65
2022/12/14 10:19:05;;;;;;;7.10;3.20;;;;;;;;;;20741984;28;20446;-65
2022/12/14 10:29:13;;;;;;;13.07;2.92;;;;;;;;;;20745341;28;20049;-64
2022/12/14 10:39:35;;;;;;;5.05;1.77;;;;;;;;;;20740954;28;20054;-62
2022/12/14 10:49:53;;;;;;;4.97;1.23;;;;;;;;;;20831047;28;20522;-60
2022/12/14 10:59:56;;;;;;;6.93;1.13;;;;;;;;;;21162834;28;20133;-61
2022/12/14 11:10:15;;;;;;;6.63;1.40;;;;;;;;;;21162158;28;20087;-63
2022/12/14 11:20:21;;;;;;;4.20;1.35;;;;;;;;;;21161887;28;20056;-62
2022/12/14 11:30:23;;;;;;;6.03;1.42;;;;;;;;;;21169910;28;20129;-61
2022/12/14 11:40:26;;;;;;;8.50;2.28;;;;;;;;;;21177618;28;20126;-62
2022/12/14 11:50:28;;;;;;;7.22;1.55;;;;;;;;;;21176181;28;20130;-60
2022/12/14 12:00:38;;;;;;;6.80;2.35;;;;;;;;;;21177068;28;20062;-60
2022/12/14 12:10:41;;;;;;;5.30;1.58;;;;;;;;;;21177793;28;20455;-62
2022/12/14 12:20:49;;;;;;;8.27;2.50;;;;;;;;;;21183129;28;20471;-61
2022/12/14 12:30:52;;;;;;;5.88;2.08;;;;;;;;;;21174218;28;20130;-59
2022/12/14 12:41:14;;;;;;;3.63;1.50;;;;;;;;;;21173057;28;20145;-60
2022/12/14 12:51:20;;;;;;;5.50;1.85;;;;;;;;;;21172763;28;20048;-60
2022/12/14 13:01:23;;;;;;;5.70;1.75;;;;;;;;;;21171448;28;20445;-62
2022/12/14 13:11:35;;;;;;;5.70;2.35;;;;;;;;;;21172069;28;20047;-61
2022/12/14 13:21:41;;;;;;;5.65;1.35;;;;;;;;;;21175149;28;20130;-61
2022/12/14 13:31:49;;;;;;;6.10;2.00;;;;;;;;;;21175349;28;20048;-63
2022/12/14 13:42:12;;;;;;;9.05;2.72;;;;;;;;;;21151059;28;20047;-61
2022/12/14 13:52:39;;;;;;;16.35;5.20;;;;;;;;;;21167027;28;20075;-61
2022/12/14 14:02:52;;;;;;;8.18;2.88;;;;;;;;;;21162743;28;20138;-61
2022/12/14 14:12:54;;;;;;;12.07;3.50;;;;;;;;;;21166322;28;20066;-61
2022/12/14 14:23:16;;;;;;;9.23;3.22;;;;;;;;;;21166140;28;20054;-59
2022/12/14 14:33:41;;;;;;;8.13;3.08;;;;;;;;;;21165599;28;20505;-60
2022/12/14 14:43:47;;;;;;;7.63;3.08;;;;;;;;;;21150641;28;20043;-63
2022/12/14 14:54:09;;;;;;;12.65;4.60;;;;;;;;;;21163695;28;20047;-60
2022/12/14 15:04:37;;;;;;;8.00;4.03;;;;;;;;;;21175440;28;20415;-60
2022/12/14 15:14:44;;;;;;;24.58;10.52;;;;;;;;;;20766367;28;20164;-60
2022/12/14 15:24:48;;;;;;;13.98;7.10;;;;;;;;;;20765727;28;20098;-61
2022/12/14 15:34:55;;;;;;;13.68;7.43;;;;;;;;;;20765618;28;20050;-61
2022/12/14 15:44:57;;;;;;;10.75;6.75;;;;;;;;;;20864899;28;20047;-60
2022/12/14 15:54:59;;;;;;;13.45;6.63;;;;;;;;;;21188943;28;20055;-59
2022/12/14 16:05:02;;;;;;;10.55;5.88;;;;;;;;;;21189637;28;20383;-61
2022/12/14 16:15:15;;;;;;;11.38;3.10;;;;;;;;;;21179531;28;20078;-64
2022/12/14 16:25:19;;;;;;;7.43;3.65;;;;;;;;;;21171667;28;20051;-65
2022/12/14 16:35:23;;;;;;;6.40;3.28;;;;;;;;;;21169159;28;20101;-74
2022/12/14 16:45:34;;;;;;;8.57;3.63;;;;;;;;;;21172849;28;20047;-67
2022/12/14 16:55:56;;;;;;;8.85;3.75;;;;;;;;;;21172329;28;20040;-76
2022/12/14 17:06:00;;;;;;;11.38;3.75;;;;;;;;;;21170904;28;20108;-66
2022/12/14 17:16:03;;;;;;;7.72;3.90;;;;;;;;;;21171729;28;20436;-64
2022/12/14 17:26:05;;;;;;;8.35;4.38;;;;;;;;;;21168938;28;20087;-68
2022/12/14 17:36:07;;;;;;;9.75;4.88;;;;;;;;;;21168448;28;20191;-62
2022/12/14 17:46:09;;;;;;;15.32;7.22;;;;;;;;;;21163510;28;20040;-61
2022/12/14 17:56:11;;;;;;;6.97;4.10;;;;;;;;;;21166481;27;20058;-69
2022/12/14 18:06:13;;;;;;;2.17;0.93;;;;;;;;;;21166056;28;20138;-64
2022/12/14 18:16:18;;;;;;;2.17;0.70;;;;;;;;;;21166388;28;20040;-63
2022/12/14 18:26:20;;;;;;;4.45;1.30;;;;;;;;;;21166108;28;20059;-64
2022/12/14 18:36:21;;;;;;;1.30;0.50;;;;;;;;;;21164186;28;20048;-65
2022/12/14 18:46:23;;;;;;;2.90;1.10;;;;;;;;;;21163974;28;20044;-64
2022/12/14 18:56:26;;;;;;;3.05;1.33;;;;;;;;;;21163583;28;20087;-62
2022/12/14 19:06:28;;;;;;;2.08;1.30;;;;;;;;;;21162077;28;20436;-64
2022/12/14 19:16:30;;;;;;;4.45;1.83;;;;;;;;;;21162074;28;20051;-62
2022/12/14 19:26:31;;;;;;;7.10;2.30;;;;;;;;;;21162998;28;20055;-65
2022/12/14 19:36:33;;;;;;;5.97;2.38;;;;;;;;;;21161987;28;20043;-64
2022/12/14 19:46:35;;;;;;;6.55;3.03;;;;;;;;;;21161093;28;20495;-60
2022/12/14 19:56:37;;;;;;;7.55;3.00;;;;;;;;;;21176830;28;20048;-61
2022/12/14 20:06:39;;;;;;;2.75;1.52;;;;;;;;;;21176158;28;20063;-62
2022/12/14 20:16:41;;;;;;;4.55;2.75;;;;;;;;;;21176038;28;20044;-61
2022/12/14 20:26:43;;;;;;;6.97;2.65;;;;;;;;;;21175092;28;20047;-59
2022/12/14 20:36:45;;;;;;;5.68;3.03;;;;;;;;;;21173881;28;20054;-60
2022/12/14 20:46:50;;;;;;;6.32;2.78;;;;;;;;;;21172611;28;20456;-61
2022/12/14 20:56:52;;;;;;;4.93;2.80;;;;;;;;;;21171179;28;20047;-60
2022/12/14 21:06:54;;;;;;;5.63;2.53;;;;;;;;;;21170280;28;20513;-62
2022/12/14 21:16:56;;;;;;;5.50;2.65;;;;;;;;;;21170313;28;20076;-60
2022/12/14 21:26:58;;;;;;;6.95;3.45;;;;;;;;;;21168246;28;20051;-60
2022/12/14 21:37:03;;;;;;;9.93;5.38;;;;;;;;;;21168512;28;20039;-60
2022/12/14 21:47:07;;;;;;;8.45;5.32;;;;;;;;;;21168327;28;20048;-61
2022/12/14 22:07:36;;;;;;;4.78;2.50;;;;;;;;;;21251448;27;20043;-62
2022/12/14 22:17:38;;;;;;;4.13;1.73;;;;;;;;;;21251540;27;20527;-61
2022/12/14 22:27:40;;;;;;;3.85;1.70;;;;;;;;;;21250153;27;20055;-60
2022/12/14 22:37:43;;;;;;;3.38;1.38;;;;;;;;;;21248868;27;20403;-60
2022/12/14 22:47:44;;;;;;;2.80;1.00;;;;;;;;;;21250200;27;20058;-62
2022/12/14 22:57:47;;;;;;;1.13;0.70;;;;;;;;;;21248972;27;20072;-60
2022/12/14 23:07:49;;;;;;;1.67;0.63;;;;;;;;;;21247877;28;20498;-60
